sensor_id;sensor_type;location;lat;lon;timestamp;P1;durP1;ratioP1;P2;durP2;ratioP2
66129;SDS011;52930;51.464;11.764;2022-11-25T00:00:06;7.73;;;2.60;;
66129;SDS011;52930;51.464;11.764;2022-11-25T00:02:32;8.75;;;2.47;;
66129;SDS011;52930;51.464;11.764;2022-11-25T00:04:57;9.95;;;2.60;;
66129;SDS011;52930;51.464;11.764;2022-11-25T00:07:23;10.60;;;2.43;;
66129;SDS011;52930;51.464;11.764;2022-11-25T00:09:48;8.03;;;2.67;;
66129;SDS011;52930;51.464;11.764;2022-11-25T00:12:13;9.20;;;2.40;;
66129;SDS011;52930;51.464;11.764;2022-11-25T00:14:39;9.27;;;2.40;;
66129;SDS011;52930;51.464;11.764;2022-11-25T00:17:04;8.30;;;2.47;;
66129;SDS011;52930;51.464;11.764;2022-11-25T00:19:30;9.43;;;2.43;;
66129;SDS011;52930;51.464;11.764;2022-11-25T00:21:55;6.93;;;2.33;;
66129;SDS011;52930;51.464;11.764;2022-11-25T00:24:20;8.40;;;2.40;;
66129;SDS011;52930;51.464;11.764;2022-11-25T00:26:46;9.10;;;2.47;;
66129;SDS011;52930;51.464;11.764;2022-11-25T00:29:11;13.30;;;2.90;;
66129;SDS011;52930;51.464;11.764;2022-11-25T00:31:38;9.00;;;2.30;;
66129;SDS011;52930;51.464;11.764;2022-11-25T00:34:04;10.90;;;2.57;;
66129;SDS011;52930;51.464;11.764;2022-11-25T00:36:32;9.90;;;2.88;;
66129;SDS011;52930;51.464;11.764;2022-11-25T00:38:59;9.85;;;2.53;;
66129;SDS011;52930;51.464;11.764;2022-11-25T00:41:26;8.27;;;2.40;;
66129;SDS011;52930;51.464;11.764;2022-11-25T00:44:12;9.52;;;3.20;;
66129;SDS011;52930;51.464;11.764;2022-11-25T00:47:00;10.40;;;2.53;;
66129;SDS011;52930;51.464;11.764;2022-11-25T00:49:26;11.65;;;2.60;;
66129;SDS011;52930;51.464;11.764;2022-11-25T00:51:52;10.83;;;2.57;;
66129;SDS011;52930;51.464;11.764;2022-11-25T00:54:18;7.72;;;2.45;;
66129;SDS011;52930;51.464;11.764;2022-11-25T00:56:43;13.50;;;2.37;;
66129;SDS011;52930;51.464;11.764;2022-11-25T00:59:09;10.50;;;2.53;;
66129;SDS011;52930;51.464;11.764;2022-11-25T01:01:35;9.52;;;2.65;;
66129;SDS011;52930;51.464;11.764;2022-11-25T01:04:00;10.15;;;2.38;;
66129;SDS011;52930;51.464;11.764;2022-11-25T01:06:26;10.37;;;2.53;;
66129;SDS011;52930;51.464;11.764;2022-11-25T01:08:52;12.33;;;2.83;;
66129;SDS011;52930;51.464;11.764;2022-11-25T01:11:18;10.75;;;2.60;;
66129;SDS011;52930;51.464;11.764;2022-11-25T01:13:44;12.23;;;3.15;;
66129;SDS011;52930;51.464;11.764;2022-11-25T01:16:12;11.20;;;2.80;;
66129;SDS011;52930;51.464;11.764;2022-11-25T01:18:39;13.48;;;3.25;;
66129;SDS011;52930;51.464;11.764;2022-11-25T01:21:06;8.80;;;2.80;;
66129;SDS011;52930;51.464;11.764;2022-11-25T01:23:33;9.47;;;2.70;;
66129;SDS011;52930;51.464;11.764;2022-11-25T01:26:05;9.57;;;2.75;;
66129;SDS011;52930;51.464;11.764;2022-11-25T01:28:33;11.98;;;3.17;;
66129;SDS011;52930;51.464;11.764;2022-11-25T01:31:02;9.03;;;2.50;;
66129;SDS011;52930;51.464;11.764;2022-11-25T01:33:30;10.10;;;2.88;;
66129;SDS011;52930;51.464;11.764;2022-11-25T01:36:06;11.48;;;2.70;;
66129;SDS011;52930;51.464;11.764;2022-11-25T01:38:35;9.95;;;2.42;;
66129;SDS011;52930;51.464;11.764;2022-11-25T01:41:01;10.73;;;2.67;;
66129;SDS011;52930;51.464;11.764;2022-11-25T01:43:28;10.90;;;2.58;;
66129;SDS011;52930;51.464;11.764;2022-11-25T01:46:18;8.00;;;2.20;;
66129;SDS011;52930;51.464;11.764;2022-11-25T01:49:09;9.05;;;2.35;;
66129;SDS011;52930;51.464;11.764;2022-11-25T01:54:05;6.78;;;2.15;;
66129;SDS011;52930;51.464;11.764;2022-11-25T01:56:33;9.00;;;2.72;;
66129;SDS011;52930;51.464;11.764;2022-11-25T01:59:01;14.47;;;2.83;;
66129;SDS011;52930;51.464;11.764;2022-11-25T02:01:26;8.02;;;2.72;;
66129;SDS011;52930;51.464;11.764;2022-11-25T02:03:52;10.63;;;2.97;;
66129;SDS011;52930;51.464;11.764;2022-11-25T02:06:23;12.90;;;2.75;;
66129;SDS011;52930;51.464;11.764;2022-11-25T02:08:54;8.27;;;2.10;;
66129;SDS011;52930;51.464;11.764;2022-11-25T02:11:21;9.38;;;2.75;;
66129;SDS011;52930;51.464;11.764;2022-11-25T02:13:50;11.50;;;2.60;;
66129;SDS011;52930;51.464;11.764;2022-11-25T02:16:15;9.75;;;2.83;;
66129;SDS011;52930;51.464;11.764;2022-11-25T02:18:41;9.77;;;2.70;;
66129;SDS011;52930;51.464;11.764;2022-11-25T02:21:06;10.23;;;2.60;;
66129;SDS011;52930;51.464;11.764;2022-11-25T02:25:57;10.30;;;2.80;;
66129;SDS011;52930;51.464;11.764;2022-11-25T02:28:24;9.67;;;2.50;;
66129;SDS011;52930;51.464;11.764;2022-11-25T02:30:51;15.10;;;2.95;;
66129;SDS011;52930;51.464;11.764;2022-11-25T02:33:17;14.50;;;3.08;;
66129;SDS011;52930;51.464;11.764;2022-11-25T02:35:47;10.73;;;3.25;;
66129;SDS011;52930;51.464;11.764;2022-11-25T02:38:16;10.70;;;3.33;;
66129;SDS011;52930;51.464;11.764;2022-11-25T02:43:10;11.35;;;3.22;;
66129;SDS011;52930;51.464;11.764;2022-11-25T02:45:54;10.50;;;3.10;;
66129;SDS011;52930;51.464;11.764;2022-11-25T02:48:25;12.38;;;3.33;;
66129;SDS011;52930;51.464;11.764;2022-11-25T02:50:51;13.27;;;3.60;;
66129;SDS011;52930;51.464;11.764;2022-11-25T02:53:17;12.05;;;3.35;;
66129;SDS011;52930;51.464;11.764;2022-11-25T02:55:43;14.70;;;3.80;;
66129;SDS011;52930;51.464;11.764;2022-11-25T02:58:08;11.55;;;3.40;;
66129;SDS011;52930;51.464;11.764;2022-11-25T03:00:34;16.25;;;3.50;;
66129;SDS011;52930;51.464;11.764;2022-11-25T03:02:59;17.30;;;3.90;;
66129;SDS011;52930;51.464;11.764;2022-11-25T03:05:25;14.93;;;3.55;;
66129;SDS011;52930;51.464;11.764;2022-11-25T03:07:50;14.13;;;3.33;;
66129;SDS011;52930;51.464;11.764;2022-11-25T03:10:16;12.37;;;2.90;;
66129;SDS011;52930;51.464;11.764;2022-11-25T03:12:41;9.07;;;2.83;;
66129;SDS011;52930;51.464;11.764;2022-11-25T03:15:07;9.25;;;3.30;;
66129;SDS011;52930;51.464;11.764;2022-11-25T03:17:33;11.57;;;3.10;;
66129;SDS011;52930;51.464;11.764;2022-11-25T03:19:58;8.77;;;3.10;;
66129;SDS011;52930;51.464;11.764;2022-11-25T03:22:23;7.67;;;3.07;;
66129;SDS011;52930;51.464;11.764;2022-11-25T03:24:49;12.65;;;3.30;;
66129;SDS011;52930;51.464;11.764;2022-11-25T03:27:14;14.50;;;3.27;;
66129;SDS011;52930;51.464;11.764;2022-11-25T03:29:40;10.33;;;2.77;;
66129;SDS011;52930;51.464;11.764;2022-11-25T03:32:05;12.35;;;2.97;;
66129;SDS011;52930;51.464;11.764;2022-11-25T03:34:31;11.63;;;3.33;;
66129;SDS011;52930;51.464;11.764;2022-11-25T03:36:56;11.43;;;2.90;;
66129;SDS011;52930;51.464;11.764;2022-11-25T03:39:22;9.53;;;2.37;;
66129;SDS011;52930;51.464;11.764;2022-11-25T03:41:47;12.38;;;2.70;;
66129;SDS011;52930;51.464;11.764;2022-11-25T03:44:13;11.43;;;3.15;;
66129;SDS011;52930;51.464;11.764;2022-11-25T03:46:39;8.83;;;2.80;;
66129;SDS011;52930;51.464;11.764;2022-11-25T03:49:04;12.38;;;3.10;;
66129;SDS011;52930;51.464;11.764;2022-11-25T03:51:29;7.40;;;2.80;;
66129;SDS011;52930;51.464;11.764;2022-11-25T03:53:55;9.30;;;2.93;;
66129;SDS011;52930;51.464;11.764;2022-11-25T03:56:20;9.80;;;2.73;;
66129;SDS011;52930;51.464;11.764;2022-11-25T03:58:46;8.97;;;2.80;;
66129;SDS011;52930;51.464;11.764;2022-11-25T04:01:11;7.47;;;2.50;;
66129;SDS011;52930;51.464;11.764;2022-11-25T04:03:36;7.13;;;2.33;;
66129;SDS011;52930;51.464;11.764;2022-11-25T04:06:02;8.43;;;2.40;;
66129;SDS011;52930;51.464;11.764;2022-11-25T04:08:28;7.83;;;2.40;;
66129;SDS011;52930;51.464;11.764;2022-11-25T04:10:53;7.38;;;2.60;;
66129;SDS011;52930;51.464;11.764;2022-11-25T04:13:19;12.33;;;2.40;;
66129;SDS011;52930;51.464;11.764;2022-11-25T04:15:45;10.73;;;2.70;;
66129;SDS011;52930;51.464;11.764;2022-11-25T04:18:11;10.40;;;2.47;;
66129;SDS011;52930;51.464;11.764;2022-11-25T04:20:40;7.88;;;2.50;;
66129;SDS011;52930;51.464;11.764;2022-11-25T04:23:06;9.63;;;2.70;;
66129;SDS011;52930;51.464;11.764;2022-11-25T04:25:32;9.85;;;2.60;;
66129;SDS011;52930;51.464;11.764;2022-11-25T04:27:58;7.63;;;2.55;;
66129;SDS011;52930;51.464;11.764;2022-11-25T04:30:24;7.10;;;2.40;;
66129;SDS011;52930;51.464;11.764;2022-11-25T04:32:49;8.67;;;2.60;;
66129;SDS011;52930;51.464;11.764;2022-11-25T04:35:14;8.30;;;2.30;;
66129;SDS011;52930;51.464;11.764;2022-11-25T04:37:40;7.47;;;2.50;;
66129;SDS011;52930;51.464;11.764;2022-11-25T04:40:05;9.07;;;2.23;;
66129;SDS011;52930;51.464;11.764;2022-11-25T04:42:31;9.93;;;2.65;;
66129;SDS011;52930;51.464;11.764;2022-11-25T04:44:57;14.77;;;2.60;;
66129;SDS011;52930;51.464;11.764;2022-11-25T04:47:23;9.05;;;2.78;;
66129;SDS011;52930;51.464;11.764;2022-11-25T04:49:49;8.47;;;2.70;;
66129;SDS011;52930;51.464;11.764;2022-11-25T04:52:15;11.27;;;2.63;;
66129;SDS011;52930;51.464;11.764;2022-11-25T04:54:40;7.72;;;2.80;;
66129;SDS011;52930;51.464;11.764;2022-11-25T04:57:05;8.15;;;2.65;;
66129;SDS011;52930;51.464;11.764;2022-11-25T04:59:31;9.20;;;2.60;;
66129;SDS011;52930;51.464;11.764;2022-11-25T05:04:37;13.10;;;2.47;;
66129;SDS011;52930;51.464;11.764;2022-11-25T05:07:02;7.88;;;2.70;;
66129;SDS011;52930;51.464;11.764;2022-11-25T05:09:27;8.75;;;2.78;;
66129;SDS011;52930;51.464;11.764;2022-11-25T05:11:53;9.00;;;2.50;;
66129;SDS011;52930;51.464;11.764;2022-11-25T05:14:18;9.90;;;3.43;;
66129;SDS011;52930;51.464;11.764;2022-11-25T05:16:44;10.53;;;3.17;;
66129;SDS011;52930;51.464;11.764;2022-11-25T05:19:09;8.43;;;2.50;;
66129;SDS011;52930;51.464;11.764;2022-11-25T05:21:34;9.57;;;3.23;;
66129;SDS011;52930;51.464;11.764;2022-11-25T05:24:00;10.20;;;3.00;;
66129;SDS011;52930;51.464;11.764;2022-11-25T05:26:25;10.43;;;3.03;;
66129;SDS011;52930;51.464;11.764;2022-11-25T05:28:51;12.33;;;3.27;;
66129;SDS011;52930;51.464;11.764;2022-11-25T05:31:16;12.63;;;3.43;;
66129;SDS011;52930;51.464;11.764;2022-11-25T05:33:41;9.47;;;3.03;;
66129;SDS011;52930;51.464;11.764;2022-11-25T05:36:07;9.20;;;3.03;;
66129;SDS011;52930;51.464;11.764;2022-11-25T05:38:32;11.40;;;3.60;;
66129;SDS011;52930;51.464;11.764;2022-11-25T05:41:06;11.68;;;3.38;;
66129;SDS011;52930;51.464;11.764;2022-11-25T05:43:32;12.40;;;3.45;;
66129;SDS011;52930;51.464;11.764;2022-11-25T05:45:58;10.80;;;2.88;;
66129;SDS011;52930;51.464;11.764;2022-11-25T05:48:24;9.23;;;2.93;;
66129;SDS011;52930;51.464;11.764;2022-11-25T05:50:49;10.27;;;2.80;;
66129;SDS011;52930;51.464;11.764;2022-11-25T05:53:15;10.30;;;2.80;;
66129;SDS011;52930;51.464;11.764;2022-11-25T05:55:41;13.03;;;2.90;;
66129;SDS011;52930;51.464;11.764;2022-11-25T05:58:07;12.32;;;2.47;;
66129;SDS011;52930;51.464;11.764;2022-11-25T06:00:33;10.98;;;2.88;;
66129;SDS011;52930;51.464;11.764;2022-11-25T06:02:58;7.33;;;2.63;;
66129;SDS011;52930;51.464;11.764;2022-11-25T06:05:24;9.33;;;2.60;;
66129;SDS011;52930;51.464;11.764;2022-11-25T06:07:49;13.18;;;2.67;;
66129;SDS011;52930;51.464;11.764;2022-11-25T06:10:15;13.40;;;2.50;;
66129;SDS011;52930;51.464;11.764;2022-11-25T06:12:41;11.65;;;2.80;;
66129;SDS011;52930;51.464;11.764;2022-11-25T06:15:08;12.00;;;2.77;;
66129;SDS011;52930;51.464;11.764;2022-11-25T06:17:34;9.18;;;2.88;;
66129;SDS011;52930;51.464;11.764;2022-11-25T06:19:59;14.83;;;3.30;;
66129;SDS011;52930;51.464;11.764;2022-11-25T06:22:24;16.20;;;3.30;;
66129;SDS011;52930;51.464;11.764;2022-11-25T06:24:50;14.40;;;3.60;;
66129;SDS011;52930;51.464;11.764;2022-11-25T06:27:15;18.50;;;3.55;;
66129;SDS011;52930;51.464;11.764;2022-11-25T06:29:40;19.03;;;3.73;;
66129;SDS011;52930;51.464;11.764;2022-11-25T06:32:06;17.17;;;3.23;;
66129;SDS011;52930;51.464;11.764;2022-11-25T06:34:31;20.93;;;3.77;;
66129;SDS011;52930;51.464;11.764;2022-11-25T06:36:56;12.77;;;3.50;;
66129;SDS011;52930;51.464;11.764;2022-11-25T06:39:22;15.23;;;3.30;;
66129;SDS011;52930;51.464;11.764;2022-11-25T06:41:47;11.10;;;3.43;;
66129;SDS011;52930;51.464;11.764;2022-11-25T06:44:13;12.02;;;3.00;;
66129;SDS011;52930;51.464;11.764;2022-11-25T06:46:38;13.00;;;3.17;;
66129;SDS011;52930;51.464;11.764;2022-11-25T06:49:04;13.77;;;3.30;;
66129;SDS011;52930;51.464;11.764;2022-11-25T06:51:29;10.45;;;3.00;;
66129;SDS011;52930;51.464;11.764;2022-11-25T06:53:55;10.67;;;3.30;;
66129;SDS011;52930;51.464;11.764;2022-11-25T06:56:22;8.40;;;3.17;;
66129;SDS011;52930;51.464;11.764;2022-11-25T06:58:49;14.80;;;3.17;;
66129;SDS011;52930;51.464;11.764;2022-11-25T07:01:25;9.00;;;3.22;;
66129;SDS011;52930;51.464;11.764;2022-11-25T07:03:53;13.45;;;4.10;;
66129;SDS011;52930;51.464;11.764;2022-11-25T07:06:23;13.80;;;3.40;;
66129;SDS011;52930;51.464;11.764;2022-11-25T07:08:48;16.55;;;3.72;;
66129;SDS011;52930;51.464;11.764;2022-11-25T07:11:22;13.17;;;3.93;;
66129;SDS011;52930;51.464;11.764;2022-11-25T07:13:53;14.93;;;4.38;;
66129;SDS011;52930;51.464;11.764;2022-11-25T07:16:22;14.10;;;3.92;;
66129;SDS011;52930;51.464;11.764;2022-11-25T07:18:47;14.70;;;4.00;;
66129;SDS011;52930;51.464;11.764;2022-11-25T07:21:14;10.85;;;3.47;;
66129;SDS011;52930;51.464;11.764;2022-11-25T07:23:42;14.45;;;3.63;;
66129;SDS011;52930;51.464;11.764;2022-11-25T07:26:13;11.18;;;3.85;;
66129;SDS011;52930;51.464;11.764;2022-11-25T07:28:38;9.88;;;2.97;;
66129;SDS011;52930;51.464;11.764;2022-11-25T07:33:31;9.23;;;3.07;;
66129;SDS011;52930;51.464;11.764;2022-11-25T07:35:59;12.25;;;2.80;;
66129;SDS011;52930;51.464;11.764;2022-11-25T07:38:26;9.18;;;3.03;;
66129;SDS011;52930;51.464;11.764;2022-11-25T07:40:52;10.15;;;2.78;;
66129;SDS011;52930;51.464;11.764;2022-11-25T07:43:17;8.90;;;3.03;;
66129;SDS011;52930;51.464;11.764;2022-11-25T07:45:42;10.20;;;3.07;;
66129;SDS011;52930;51.464;11.764;2022-11-25T07:48:08;10.82;;;3.33;;
66129;SDS011;52930;51.464;11.764;2022-11-25T07:50:33;13.07;;;3.40;;
66129;SDS011;52930;51.464;11.764;2022-11-25T07:52:59;12.73;;;3.17;;
66129;SDS011;52930;51.464;11.764;2022-11-25T07:55:24;15.40;;;4.10;;
66129;SDS011;52930;51.464;11.764;2022-11-25T07:57:49;13.97;;;3.27;;
66129;SDS011;52930;51.464;11.764;2022-11-25T08:00:15;14.43;;;3.40;;
66129;SDS011;52930;51.464;11.764;2022-11-25T08:02:40;13.25;;;3.72;;
66129;SDS011;52930;51.464;11.764;2022-11-25T08:05:06;14.60;;;6.13;;
66129;SDS011;52930;51.464;11.764;2022-11-25T08:07:32;20.33;;;6.75;;
66129;SDS011;52930;51.464;11.764;2022-11-25T08:09:57;16.53;;;5.40;;
66129;SDS011;52930;51.464;11.764;2022-11-25T08:12:22;16.57;;;4.53;;
66129;SDS011;52930;51.464;11.764;2022-11-25T08:14:48;13.10;;;3.63;;
66129;SDS011;52930;51.464;11.764;2022-11-25T08:17:13;11.73;;;3.47;;
66129;SDS011;52930;51.464;11.764;2022-11-25T08:19:38;13.63;;;4.77;;
66129;SDS011;52930;51.464;11.764;2022-11-25T08:22:04;10.67;;;4.30;;
66129;SDS011;52930;51.464;11.764;2022-11-25T08:24:30;13.23;;;4.50;;
66129;SDS011;52930;51.464;11.764;2022-11-25T08:26:55;12.47;;;4.07;;
66129;SDS011;52930;51.464;11.764;2022-11-25T08:29:22;11.23;;;3.63;;
66129;SDS011;52930;51.464;11.764;2022-11-25T08:31:48;12.20;;;3.67;;
66129;SDS011;52930;51.464;11.764;2022-11-25T08:34:18;12.55;;;3.25;;
66129;SDS011;52930;51.464;11.764;2022-11-25T08:36:44;9.15;;;2.95;;
66129;SDS011;52930;51.464;11.764;2022-11-25T08:39:10;10.07;;;3.75;;
66129;SDS011;52930;51.464;11.764;2022-11-25T08:41:36;11.82;;;4.20;;
66129;SDS011;52930;51.464;11.764;2022-11-25T08:44:03;13.75;;;3.88;;
66129;SDS011;52930;51.464;11.764;2022-11-25T08:46:31;11.80;;;3.80;;
66129;SDS011;52930;51.464;11.764;2022-11-25T08:49:00;15.80;;;3.83;;
66129;SDS011;52930;51.464;11.764;2022-11-25T08:51:27;10.85;;;4.07;;
66129;SDS011;52930;51.464;11.764;2022-11-25T08:53:54;16.00;;;4.00;;
66129;SDS011;52930;51.464;11.764;2022-11-25T08:56:20;14.30;;;4.00;;
66129;SDS011;52930;51.464;11.764;2022-11-25T08:58:47;12.07;;;3.17;;
66129;SDS011;52930;51.464;11.764;2022-11-25T09:01:13;11.30;;;3.60;;
66129;SDS011;52930;51.464;11.764;2022-11-25T09:03:41;10.90;;;3.08;;
66129;SDS011;52930;51.464;11.764;2022-11-25T09:06:08;13.63;;;4.00;;
66129;SDS011;52930;51.464;11.764;2022-11-25T09:08:34;13.35;;;3.75;;
66129;SDS011;52930;51.464;11.764;2022-11-25T09:11:01;11.02;;;3.53;;
66129;SDS011;52930;51.464;11.764;2022-11-25T09:13:26;10.47;;;3.90;;
66129;SDS011;52930;51.464;11.764;2022-11-25T09:15:52;10.47;;;3.47;;
66129;SDS011;52930;51.464;11.764;2022-11-25T09:18:17;10.95;;;3.25;;
66129;SDS011;52930;51.464;11.764;2022-11-25T09:20:44;13.80;;;3.50;;
66129;SDS011;52930;51.464;11.764;2022-11-25T09:23:10;10.65;;;3.55;;
66129;SDS011;52930;51.464;11.764;2022-11-25T09:25:36;15.53;;;3.87;;
66129;SDS011;52930;51.464;11.764;2022-11-25T09:28:01;10.30;;;3.40;;
66129;SDS011;52930;51.464;11.764;2022-11-25T09:30:27;11.63;;;3.67;;
66129;SDS011;52930;51.464;11.764;2022-11-25T09:32:53;11.25;;;3.33;;
66129;SDS011;52930;51.464;11.764;2022-11-25T09:35:19;12.70;;;3.20;;
66129;SDS011;52930;51.464;11.764;2022-11-25T09:37:45;11.88;;;3.40;;
66129;SDS011;52930;51.464;11.764;2022-11-25T09:40:24;12.27;;;3.47;;
66129;SDS011;52930;51.464;11.764;2022-11-25T09:46:16;10.32;;;3.15;;
66129;SDS011;52930;51.464;11.764;2022-11-25T09:54:38;11.00;;;2.80;;
66129;SDS011;52930;51.464;11.764;2022-11-25T10:00:17;10.45;;;2.90;;
66129;SDS011;52930;51.464;11.764;2022-11-25T10:05:29;9.33;;;2.50;;
66129;SDS011;52930;51.464;11.764;2022-11-25T10:07:59;8.48;;;2.80;;
66129;SDS011;52930;51.464;11.764;2022-11-25T10:10:29;10.68;;;2.55;;
66129;SDS011;52930;51.464;11.764;2022-11-25T10:12:57;8.77;;;3.13;;
66129;SDS011;52930;51.464;11.764;2022-11-25T10:17:59;9.70;;;2.40;;
66129;SDS011;52930;51.464;11.764;2022-11-25T10:20:32;9.85;;;2.13;;
66129;SDS011;52930;51.464;11.764;2022-11-25T10:23:01;10.75;;;2.42;;
66129;SDS011;52930;51.464;11.764;2022-11-25T10:25:36;7.88;;;1.98;;
66129;SDS011;52930;51.464;11.764;2022-11-25T10:28:28;9.10;;;2.20;;
66129;SDS011;52930;51.464;11.764;2022-11-25T10:33:31;9.35;;;2.35;;
66129;SDS011;52930;51.464;11.764;2022-11-25T10:36:15;9.57;;;2.28;;
66129;SDS011;52930;51.464;11.764;2022-11-25T10:41:23;9.43;;;1.60;;
66129;SDS011;52930;51.464;11.764;2022-11-25T10:43:51;6.50;;;1.53;;
66129;SDS011;52930;51.464;11.764;2022-11-25T10:46:27;6.40;;;1.42;;
66129;SDS011;52930;51.464;11.764;2022-11-25T10:49:19;10.27;;;2.28;;
66129;SDS011;52930;51.464;11.764;2022-11-25T10:51:49;8.90;;;2.35;;
66129;SDS011;52930;51.464;11.764;2022-11-25T10:54:24;7.88;;;2.10;;
66129;SDS011;52930;51.464;11.764;2022-11-25T10:56:52;7.95;;;1.63;;
66129;SDS011;52930;51.464;11.764;2022-11-25T10:59:39;10.05;;;1.95;;
66129;SDS011;52930;51.464;11.764;2022-11-25T11:02:12;10.75;;;1.83;;
66129;SDS011;52930;51.464;11.764;2022-11-25T11:04:48;7.35;;;1.83;;
66129;SDS011;52930;51.464;11.764;2022-11-25T11:07:27;7.53;;;1.67;;
66129;SDS011;52930;51.464;11.764;2022-11-25T11:15:21;9.13;;;1.90;;
66129;SDS011;52930;51.464;11.764;2022-11-25T11:17:48;12.63;;;2.72;;
66129;SDS011;52930;51.464;11.764;2022-11-25T11:20:15;5.88;;;1.38;;
66129;SDS011;52930;51.464;11.764;2022-11-25T11:23:01;7.50;;;1.13;;
66129;SDS011;52930;51.464;11.764;2022-11-25T11:25:31;8.88;;;1.55;;
66129;SDS011;52930;51.464;11.764;2022-11-25T11:28:01;7.53;;;1.60;;
66129;SDS011;52930;51.464;11.764;2022-11-25T11:30:29;6.43;;;1.65;;
66129;SDS011;52930;51.464;11.764;2022-11-25T11:37:50;8.23;;;1.75;;
66129;SDS011;52930;51.464;11.764;2022-11-25T11:40:21;5.78;;;1.80;;
66129;SDS011;52930;51.464;11.764;2022-11-25T11:51:06;9.95;;;1.70;;
66129;SDS011;52930;51.464;11.764;2022-11-25T11:58:46;7.27;;;1.80;;
66129;SDS011;52930;51.464;11.764;2022-11-25T12:01:34;9.23;;;2.45;;
66129;SDS011;52930;51.464;11.764;2022-11-25T12:04:16;9.35;;;1.60;;
66129;SDS011;52930;51.464;11.764;2022-11-25T12:06:46;6.75;;;1.55;;
66129;SDS011;52930;51.464;11.764;2022-11-25T12:09:32;6.80;;;1.75;;
66129;SDS011;52930;51.464;11.764;2022-11-25T12:12:05;7.93;;;1.45;;
66129;SDS011;52930;51.464;11.764;2022-11-25T12:14:33;5.38;;;1.38;;
66129;SDS011;52930;51.464;11.764;2022-11-25T12:17:26;8.18;;;1.73;;
66129;SDS011;52930;51.464;11.764;2022-11-25T12:19:55;9.00;;;1.80;;
66129;SDS011;52930;51.464;11.764;2022-11-25T12:22:31;8.02;;;1.77;;
66129;SDS011;52930;51.464;11.764;2022-11-25T12:25:19;10.23;;;1.80;;
66129;SDS011;52930;51.464;11.764;2022-11-25T12:27:56;9.65;;;2.05;;
66129;SDS011;52930;51.464;11.764;2022-11-25T12:30:27;8.48;;;1.92;;
66129;SDS011;52930;51.464;11.764;2022-11-25T12:33:03;11.50;;;1.80;;
66129;SDS011;52930;51.464;11.764;2022-11-25T12:43:33;9.07;;;1.73;;
66129;SDS011;52930;51.464;11.764;2022-11-25T12:48:46;6.95;;;1.60;;
66129;SDS011;52930;51.464;11.764;2022-11-25T12:54:01;9.23;;;3.13;;
66129;SDS011;52930;51.464;11.764;2022-11-25T12:56:50;8.63;;;3.22;;
66129;SDS011;52930;51.464;11.764;2022-11-25T13:08:14;12.93;;;3.63;;
66129;SDS011;52930;51.464;11.764;2022-11-25T13:16:02;12.88;;;3.20;;
66129;SDS011;52930;51.464;11.764;2022-11-25T13:18:30;10.20;;;3.55;;
66129;SDS011;52930;51.464;11.764;2022-11-25T13:21:04;11.13;;;3.40;;
66129;SDS011;52930;51.464;11.764;2022-11-25T13:23:49;10.70;;;3.13;;
66129;SDS011;52930;51.464;11.764;2022-11-25T13:26:35;17.53;;;3.13;;
66129;SDS011;52930;51.464;11.764;2022-11-25T13:29:06;10.43;;;3.15;;
66129;SDS011;52930;51.464;11.764;2022-11-25T13:31:55;13.15;;;3.25;;
66129;SDS011;52930;51.464;11.764;2022-11-25T13:34:30;11.50;;;3.38;;
66129;SDS011;52930;51.464;11.764;2022-11-25T13:36:57;11.02;;;3.53;;
66129;SDS011;52930;51.464;11.764;2022-11-25T13:39:28;10.20;;;3.30;;
66129;SDS011;52930;51.464;11.764;2022-11-25T13:49:53;10.60;;;3.20;;
66129;SDS011;52930;51.464;11.764;2022-11-25T13:52:40;11.30;;;3.30;;
66129;SDS011;52930;51.464;11.764;2022-11-25T13:55:09;12.45;;;3.53;;
66129;SDS011;52930;51.464;11.764;2022-11-25T13:57:48;8.30;;;3.10;;
66129;SDS011;52930;51.464;11.764;2022-11-25T14:11:29;11.13;;;3.00;;
66129;SDS011;52930;51.464;11.764;2022-11-25T14:22:23;12.95;;;4.15;;
66129;SDS011;52930;51.464;11.764;2022-11-25T14:24:42;10.48;;;3.72;;
66129;SDS011;52930;51.464;11.764;2022-11-25T14:27:14;12.80;;;4.32;;
66129;SDS011;52930;51.464;11.764;2022-11-25T14:29:51;11.43;;;3.90;;
66129;SDS011;52930;51.464;11.764;2022-11-25T14:35:09;12.82;;;4.15;;
66129;SDS011;52930;51.464;11.764;2022-11-25T14:40:22;11.02;;;3.30;;
66129;SDS011;52930;51.464;11.764;2022-11-25T14:43:14;13.47;;;3.40;;
66129;SDS011;52930;51.464;11.764;2022-11-25T14:45:42;11.68;;;3.47;;
66129;SDS011;52930;51.464;11.764;2022-11-25T14:50:39;11.68;;;3.50;;
66129;SDS011;52930;51.464;11.764;2022-11-25T14:53:06;11.13;;;3.78;;
66129;SDS011;52930;51.464;11.764;2022-11-25T14:55:32;12.52;;;3.90;;
66129;SDS011;52930;51.464;11.764;2022-11-25T14:57:58;11.03;;;3.50;;
66129;SDS011;52930;51.464;11.764;2022-11-25T15:00:23;13.97;;;4.07;;
66129;SDS011;52930;51.464;11.764;2022-11-25T15:02:53;14.77;;;4.15;;
66129;SDS011;52930;51.464;11.764;2022-11-25T15:05:34;13.15;;;4.63;;
66129;SDS011;52930;51.464;11.764;2022-11-25T15:10:34;15.57;;;5.07;;
66129;SDS011;52930;51.464;11.764;2022-11-25T15:13:19;18.48;;;6.05;;
66129;SDS011;52930;51.464;11.764;2022-11-25T15:15:47;14.95;;;4.97;;
66129;SDS011;52930;51.464;11.764;2022-11-25T15:18:16;16.85;;;5.32;;
66129;SDS011;52930;51.464;11.764;2022-11-25T15:20:45;16.57;;;5.73;;
66129;SDS011;52930;51.464;11.764;2022-11-25T15:23:12;19.63;;;6.45;;
66129;SDS011;52930;51.464;11.764;2022-11-25T15:25:56;23.38;;;7.15;;
66129;SDS011;52930;51.464;11.764;2022-11-25T15:28:22;17.05;;;6.25;;
66129;SDS011;52930;51.464;11.764;2022-11-25T15:31:00;17.00;;;6.80;;
66129;SDS011;52930;51.464;11.764;2022-11-25T15:33:26;16.95;;;6.85;;
66129;SDS011;52930;51.464;11.764;2022-11-25T15:35:53;20.38;;;6.65;;
66129;SDS011;52930;51.464;11.764;2022-11-25T15:38:19;19.23;;;7.65;;
66129;SDS011;52930;51.464;11.764;2022-11-25T15:41:03;21.27;;;6.87;;
66129;SDS011;52930;51.464;11.764;2022-11-25T15:43:30;19.38;;;6.32;;
66129;SDS011;52930;51.464;11.764;2022-11-25T15:45:59;21.00;;;7.10;;
66129;SDS011;52930;51.464;11.764;2022-11-25T15:48:30;17.23;;;6.57;;
66129;SDS011;52930;51.464;11.764;2022-11-25T15:54:07;13.93;;;5.30;;
66129;SDS011;52930;51.464;11.764;2022-11-25T15:56:44;15.80;;;4.65;;
66129;SDS011;52930;51.464;11.764;2022-11-25T16:24:07;15.63;;;5.43;;
66129;SDS011;52930;51.464;11.764;2022-11-25T16:27:17;14.90;;;5.97;;
66129;SDS011;52930;51.464;11.764;2022-11-25T16:32:15;21.58;;;7.10;;
66129;SDS011;52930;51.464;11.764;2022-11-25T16:34:41;20.80;;;7.60;;
66129;SDS011;52930;51.464;11.764;2022-11-25T16:37:07;21.40;;;6.95;;
66129;SDS011;52930;51.464;11.764;2022-11-25T16:39:33;14.03;;;5.87;;
66129;SDS011;52930;51.464;11.764;2022-11-25T16:41:59;19.53;;;6.30;;
66129;SDS011;52930;51.464;11.764;2022-11-25T16:44:29;15.65;;;5.60;;
66129;SDS011;52930;51.464;11.764;2022-11-25T16:46:55;18.00;;;5.85;;
66129;SDS011;52930;51.464;11.764;2022-11-25T16:49:21;19.48;;;6.88;;
66129;SDS011;52930;51.464;11.764;2022-11-25T16:51:47;22.53;;;9.00;;
66129;SDS011;52930;51.464;11.764;2022-11-25T16:54:17;18.73;;;7.20;;
66129;SDS011;52930;51.464;11.764;2022-11-25T16:56:43;21.80;;;8.48;;
66129;SDS011;52930;51.464;11.764;2022-11-25T16:59:12;17.10;;;7.23;;
66129;SDS011;52930;51.464;11.764;2022-11-25T17:01:42;14.68;;;6.32;;
66129;SDS011;52930;51.464;11.764;2022-11-25T17:04:10;14.25;;;5.97;;
66129;SDS011;52930;51.464;11.764;2022-11-25T17:06:36;15.40;;;6.85;;
66129;SDS011;52930;51.464;11.764;2022-11-25T17:09:01;17.13;;;6.43;;